createdAt,value
2019-03-19T00:00:21.070Z,81.52
2019-03-19T00:02:50.467Z,81.41
2019-03-19T00:05:19.875Z,81.40
2019-03-19T00:07:49.270Z,81.34
2019-03-19T00:10:18.959Z,81.09
2019-03-19T00:12:48.374Z,81.15
2019-03-19T00:15:17.933Z,80.96
2019-03-19T00:17:47.322Z,80.95
2019-03-19T00:20:17.111Z,80.80
2019-03-19T00:22:46.533Z,80.56
2019-03-19T00:25:15.955Z,80.43
2019-03-19T00:27:45.356Z,80.45
2019-03-19T00:30:18.340Z,80.25
2019-03-19T00:32:47.763Z,80.25
2019-03-19T00:35:17.202Z,80.34
2019-03-19T00:37:46.610Z,80.32
2019-03-19T00:40:16.396Z,79.77
2019-03-19T00:42:45.809Z,79.59
2019-03-19T00:45:15.462Z,79.86
2019-03-19T00:47:44.876Z,80.21
2019-03-19T00:50:16.194Z,80.23
2019-03-19T00:52:45.665Z,80.22
2019-03-19T00:55:15.277Z,80.33
2019-03-19T00:57:44.676Z,80.58
2019-03-19T01:00:16.421Z,80.67
2019-03-19T01:02:45.817Z,80.66
2019-03-19T01:05:15.675Z,80.43
2019-03-19T01:07:45.083Z,80.45
2019-03-19T01:10:17.963Z,80.62
2019-03-19T01:12:47.368Z,80.64
2019-03-19T01:15:16.908Z,80.64
2019-03-19T01:17:46.311Z,80.71
2019-03-19T01:20:16.657Z,80.81
2019-03-19T01:22:46.109Z,81.03
2019-03-19T01:25:15.487Z,81.28
2019-03-19T01:27:44.905Z,81.51
2019-03-19T01:30:15.544Z,81.56
2019-03-19T01:32:44.957Z,81.64
2019-03-19T01:35:14.361Z,81.92
2019-03-19T01:37:43.806Z,81.98
2019-03-19T01:40:13.541Z,82.16
2019-03-19T01:42:42.970Z,82.24
2019-03-19T01:45:13.398Z,82.54
2019-03-19T01:47:42.886Z,82.51
2019-03-19T01:50:13.616Z,82.60
2019-03-19T01:52:43.044Z,82.53
2019-03-19T01:55:13.803Z,82.33
2019-03-19T01:57:43.464Z,82.03
2019-03-19T02:00:15.504Z,81.96
2019-03-19T02:02:44.919Z,81.75
2019-03-19T02:05:14.448Z,81.53
2019-03-19T02:07:43.866Z,81.67
2019-03-19T02:10:14.321Z,81.82
2019-03-19T02:12:43.737Z,81.79
2019-03-19T02:15:17.757Z,81.93
2019-03-19T02:17:47.173Z,82.09
2019-03-19T02:20:17.501Z,82.40
2019-03-19T02:22:47.095Z,82.49
2019-03-19T02:25:16.489Z,82.47
2019-03-19T02:27:45.888Z,82.71
2019-03-19T02:30:18.512Z,82.87
2019-03-19T02:32:47.929Z,83.24
2019-03-19T02:35:17.403Z,83.19
2019-03-19T02:37:46.814Z,82.80
2019-03-19T02:40:17.182Z,83.05
2019-03-19T02:42:46.565Z,82.94
2019-03-19T02:45:16.229Z,83.12
2019-03-19T02:47:45.631Z,83.41
2019-03-19T02:50:16.367Z,83.45
2019-03-19T02:52:45.942Z,83.07
2019-03-19T02:55:15.335Z,83.14
2019-03-19T02:57:44.743Z,83.30
2019-03-19T03:00:15.594Z,83.51
2019-03-19T03:02:45.029Z,84.16
2019-03-19T03:05:16.954Z,84.44
2019-03-19T03:07:46.373Z,84.50
2019-03-19T03:10:16.013Z,84.52
2019-03-19T03:12:45.429Z,84.74
2019-03-19T03:15:15.558Z,84.74
2019-03-19T03:17:45.124Z,84.52
2019-03-19T03:20:15.775Z,85.03
2019-03-19T03:22:45.251Z,85.36
2019-03-19T03:25:15.683Z,85.39
2019-03-19T03:27:45.127Z,85.13
2019-03-19T03:30:19.839Z,84.39
2019-03-19T03:32:49.270Z,83.94
2019-03-19T03:35:18.663Z,83.76
2019-03-19T03:37:48.081Z,83.71
2019-03-19T03:40:18.732Z,84.00
2019-03-19T03:42:48.124Z,84.15
2019-03-19T03:45:18.762Z,84.32
2019-03-19T03:47:48.241Z,84.69
2019-03-19T03:50:20.698Z,84.67
2019-03-19T03:52:50.111Z,84.62
2019-03-19T03:55:20.259Z,84.52
2019-03-19T03:57:51.115Z,84.73
2019-03-19T04:00:24.170Z,85.15
2019-03-19T04:02:53.660Z,85.12
2019-03-19T04:05:23.236Z,85.14
2019-03-19T04:07:52.632Z,85.26
2019-03-19T04:10:22.051Z,85.09
2019-03-19T04:12:51.443Z,85.12
2019-03-19T04:15:20.862Z,84.86
2019-03-19T04:17:50.258Z,84.89
2019-03-19T04:20:19.893Z,85.32
2019-03-19T04:22:49.317Z,85.71
2019-03-19T04:25:18.828Z,85.94
2019-03-19T04:27:48.195Z,85.65
2019-03-19T04:30:21.589Z,85.59
2019-03-19T04:32:50.985Z,85.78
2019-03-19T04:35:20.409Z,86.21
2019-03-19T04:37:49.826Z,86.58
2019-03-19T04:40:19.229Z,86.73
2019-03-19T04:42:48.665Z,86.58
2019-03-19T04:45:18.073Z,85.99
2019-03-19T04:47:47.484Z,85.88
2019-03-19T04:50:17.533Z,85.88
2019-03-19T04:52:46.930Z,85.51
2019-03-19T04:55:17.101Z,85.18
2019-03-19T04:57:46.473Z,84.46
2019-03-19T05:00:19.364Z,83.41
2019-03-19T05:02:48.762Z,83.53
2019-03-19T05:05:18.173Z,84.29
2019-03-19T05:07:47.571Z,84.33
2019-03-19T05:10:17.938Z,84.43
2019-03-19T05:12:47.473Z,84.17
2019-03-19T05:15:17.010Z,84.10
2019-03-19T05:17:46.412Z,83.83
2019-03-19T05:20:16.905Z,83.88
2019-03-19T05:22:46.305Z,84.09
2019-03-19T05:25:15.713Z,84.22
2019-03-19T05:27:45.147Z,84.39
2019-03-19T05:30:44.431Z,84.12
2019-03-19T05:33:13.830Z,84.12
2019-03-19T05:35:43.252Z,84.70
2019-03-19T05:38:12.664Z,84.74
2019-03-19T05:40:42.066Z,84.83
2019-03-19T05:43:11.476Z,84.54
2019-03-19T05:45:40.882Z,83.84
2019-03-19T05:48:10.304Z,84.17
2019-03-19T05:50:39.729Z,84.15
2019-03-19T05:53:09.173Z,84.20
2019-03-19T05:55:38.561Z,84.87
2019-03-19T05:58:07.951Z,85.31
2019-03-19T06:00:38.849Z,85.30
2019-03-19T06:03:08.240Z,84.80
2019-03-19T06:05:37.671Z,84.60
2019-03-19T06:08:07.068Z,84.38
2019-03-19T06:10:36.491Z,83.83
2019-03-19T06:13:05.894Z,83.70
2019-03-19T06:15:35.314Z,83.73
2019-03-19T06:18:04.782Z,83.49
2019-03-19T06:20:34.196Z,82.93
2019-03-19T06:23:03.657Z,82.56
2019-03-19T06:25:33.070Z,81.73
2019-03-19T06:28:02.472Z,80.19
2019-03-19T06:30:31.899Z,78.65
2019-03-19T06:33:01.277Z,77.06
2019-03-19T06:35:30.701Z,75.37
2019-03-19T06:38:00.104Z,71.90
2019-03-19T06:40:29.538Z,68.83
2019-03-19T06:42:58.947Z,67.65
2019-03-19T06:45:28.348Z,65.46
2019-03-19T06:47:57.757Z,62.60
2019-03-19T06:50:28.251Z,60.59
2019-03-19T06:52:57.826Z,58.64
2019-03-19T06:55:27.248Z,57.83
2019-03-19T06:57:56.646Z,56.34
2019-03-19T07:00:26.299Z,51.15
2019-03-19T07:02:55.693Z,49.24
2019-03-19T07:05:25.106Z,47.07
2019-03-19T07:07:54.562Z,45.54
2019-03-19T07:10:23.977Z,43.98
2019-03-19T07:12:53.374Z,41.59
2019-03-19T07:15:23.738Z,38.24
2019-03-19T07:17:53.125Z,35.90
2019-03-19T07:20:23.974Z,33.75
2019-03-19T07:22:53.373Z,31.39
2019-03-19T07:25:22.846Z,28.77
2019-03-19T07:27:52.263Z,27.55
2019-03-19T07:30:24.106Z,27.80
2019-03-19T07:32:53.519Z,27.93
2019-03-19T07:35:22.914Z,26.48
2019-03-19T07:37:52.344Z,25.54
2019-03-19T07:40:21.741Z,25.49
2019-03-19T07:42:51.151Z,24.78
2019-03-19T07:45:26.777Z,23.57
2019-03-19T07:47:56.194Z,22.11
2019-03-19T07:50:25.597Z,23.23
2019-03-19T07:52:55.030Z,22.63
2019-03-19T07:55:24.416Z,23.03
2019-03-19T07:57:53.826Z,22.35
2019-03-19T08:00:23.610Z,22.65
2019-03-19T08:02:53.021Z,22.15
2019-03-19T08:05:32.529Z,22.88
2019-03-19T08:07:53.534Z,22.52
2019-03-19T08:10:22.936Z,23.50
2019-03-19T08:12:52.363Z,22.54
2019-03-19T08:15:22.332Z,23.64
2019-03-19T08:17:51.785Z,22.37
2019-03-19T08:20:21.178Z,22.60
2019-03-19T08:22:50.593Z,22.35
2019-03-19T08:25:19.984Z,23.94
2019-03-19T08:27:49.404Z,24.28
2019-03-19T08:30:24.604Z,22.77
2019-03-19T08:32:54.157Z,23.42
2019-03-19T08:35:23.644Z,22.54
2019-03-19T08:37:53.051Z,22.51
2019-03-19T08:40:22.458Z,21.48
2019-03-19T08:42:51.870Z,20.85
2019-03-19T08:45:27.487Z,21.99
2019-03-19T08:47:56.972Z,20.70
2019-03-19T08:50:26.621Z,19.01
2019-03-19T08:52:56.027Z,18.28
2019-03-19T08:55:25.455Z,17.33
2019-03-19T08:57:54.834Z,16.99
2019-03-19T09:00:27.862Z,16.14
2019-03-19T09:02:57.281Z,15.95
2019-03-19T09:05:26.693Z,15.48
2019-03-19T09:07:56.110Z,14.09
2019-03-19T09:10:25.499Z,14.19
2019-03-19T09:12:54.917Z,15.18
2019-03-19T09:15:28.822Z,14.98
2019-03-19T09:17:58.243Z,14.20
2019-03-19T09:20:27.655Z,14.01
2019-03-19T09:22:57.087Z,13.17
2019-03-19T09:25:26.484Z,12.65
2019-03-19T09:27:55.911Z,11.28
2019-03-19T09:30:25.717Z,11.18
2019-03-19T09:32:55.085Z,11.27
2019-03-19T09:35:26.301Z,10.24
2019-03-19T09:37:58.900Z,9.34
2019-03-19T09:40:26.687Z,9.91
2019-03-19T09:42:56.101Z,11.53
2019-03-19T09:45:25.505Z,10.42
2019-03-19T09:47:54.937Z,11.12
2019-03-19T09:50:26.063Z,10.88
2019-03-19T09:52:55.549Z,9.94
2019-03-19T09:55:24.944Z,9.29
2019-03-19T09:57:54.342Z,9.29
2019-03-19T10:00:24.287Z,8.02
2019-03-19T10:02:53.928Z,8.72
2019-03-19T10:05:23.326Z,7.84
2019-03-19T10:07:52.841Z,7.64
2019-03-19T10:10:23.402Z,7.08
2019-03-19T10:12:52.877Z,7.65
2019-03-19T10:15:22.452Z,7.56
2019-03-19T10:17:51.871Z,7.80
2019-03-19T10:20:25.348Z,7.02
2019-03-19T10:22:54.776Z,7.52
2019-03-19T10:25:24.232Z,6.84
2019-03-19T10:27:53.663Z,6.87
2019-03-19T10:30:23.892Z,6.05
2019-03-19T10:32:53.326Z,6.81
2019-03-19T10:35:22.801Z,6.82
2019-03-19T10:37:52.220Z,6.21
2019-03-19T10:40:22.246Z,6.17
2019-03-19T10:42:51.647Z,5.87
2019-03-19T10:45:22.182Z,6.15
2019-03-19T10:47:51.877Z,6.00
2019-03-19T10:50:23.285Z,4.79
2019-03-19T10:52:52.689Z,5.21
2019-03-19T10:55:22.160Z,6.11
2019-03-19T10:57:51.634Z,6.27
2019-03-19T11:00:25.946Z,5.10
2019-03-19T11:02:55.741Z,6.68
2019-03-19T11:05:25.800Z,5.96
2019-03-19T11:07:55.212Z,6.23
2019-03-19T11:10:24.609Z,6.19
2019-03-19T11:12:54.102Z,6.45
2019-03-19T11:15:27.301Z,5.75
2019-03-19T11:17:56.729Z,5.90
2019-03-19T11:20:26.192Z,5.83
2019-03-19T11:22:55.617Z,5.50
2019-03-19T11:25:29.251Z,5.64
2019-03-19T11:27:58.914Z,4.34
2019-03-19T11:30:29.537Z,4.44
2019-03-19T11:32:58.940Z,6.08
2019-03-19T11:35:28.498Z,6.51
2019-03-19T11:37:57.926Z,6.51
2019-03-19T11:40:27.383Z,6.40
2019-03-19T11:42:56.809Z,5.70
2019-03-19T11:45:26.481Z,5.74
2019-03-19T11:47:55.956Z,5.94
2019-03-19T11:50:26.701Z,5.36
2019-03-19T11:52:56.369Z,5.65
2019-03-19T11:55:25.891Z,5.76
2019-03-19T11:57:57.437Z,6.01
2019-03-19T12:00:50.257Z,5.68
2019-03-19T12:03:19.839Z,5.33
2019-03-19T12:05:49.231Z,6.17
2019-03-19T12:08:18.656Z,5.93
2019-03-19T12:10:48.053Z,6.14
2019-03-19T12:13:17.458Z,5.39
2019-03-19T12:15:46.852Z,5.70
2019-03-19T12:18:16.261Z,5.84
2019-03-19T12:20:45.654Z,5.50
2019-03-19T12:23:15.076Z,6.55
2019-03-19T12:25:44.466Z,6.71
2019-03-19T12:28:13.935Z,6.40
2019-03-19T12:30:43.329Z,6.97
2019-03-19T12:33:12.726Z,7.29
2019-03-19T12:35:42.112Z,7.94
2019-03-19T12:38:11.520Z,9.58
2019-03-19T12:40:40.910Z,9.27
2019-03-19T12:43:10.337Z,10.24
2019-03-19T12:45:39.737Z,11.12
2019-03-19T12:48:09.162Z,12.25
2019-03-19T12:50:38.554Z,13.42
2019-03-19T12:53:07.969Z,14.54
2019-03-19T12:55:37.437Z,15.71
2019-03-19T12:58:06.848Z,16.34
2019-03-19T13:00:36.342Z,17.71
2019-03-19T13:03:05.938Z,18.06
2019-03-19T13:05:35.323Z,16.72
2019-03-19T13:08:04.814Z,16.88
2019-03-19T13:10:34.220Z,18.81
2019-03-19T13:13:03.724Z,19.17
2019-03-19T13:15:33.199Z,19.61
2019-03-19T13:18:02.610Z,20.47
2019-03-19T13:20:32.017Z,19.22
2019-03-19T13:23:01.411Z,21.04
2019-03-19T13:25:30.835Z,20.58
2019-03-19T13:28:00.308Z,20.39
2019-03-19T13:30:31.149Z,21.20
2019-03-19T13:33:00.630Z,21.97
2019-03-19T13:35:30.033Z,22.44
2019-03-19T13:37:59.531Z,22.15
2019-03-19T13:40:28.945Z,22.44
2019-03-19T13:42:58.365Z,22.77
2019-03-19T13:45:27.767Z,22.68
2019-03-19T13:47:57.170Z,22.41
2019-03-19T13:50:26.577Z,22.03
2019-03-19T13:52:55.975Z,22.01
2019-03-19T13:55:25.445Z,22.23
2019-03-19T13:57:54.839Z,22.53
2019-03-19T14:00:24.256Z,21.45
2019-03-19T14:02:53.653Z,22.04
2019-03-19T14:05:23.063Z,23.04
2019-03-19T14:07:52.451Z,23.23
2019-03-19T14:10:22.174Z,22.11
2019-03-19T14:12:51.570Z,22.20
2019-03-19T14:15:25.308Z,23.06
2019-03-19T14:17:54.709Z,22.83
2019-03-19T14:20:24.117Z,22.69
2019-03-19T14:22:53.521Z,23.33
2019-03-19T14:25:22.928Z,22.78
2019-03-19T14:27:52.338Z,22.41
2019-03-19T14:30:22.848Z,22.28
2019-03-19T14:32:52.190Z,22.61
2019-03-19T14:35:21.687Z,22.94
2019-03-19T14:37:51.075Z,24.33
2019-03-19T14:40:21.627Z,24.48
2019-03-19T14:42:51.049Z,23.76
2019-03-19T14:45:20.573Z,25.32
2019-03-19T14:47:50.002Z,23.93
2019-03-19T14:50:22.453Z,23.89
2019-03-19T14:52:51.885Z,24.59
2019-03-19T14:55:21.338Z,23.93
2019-03-19T14:57:51.142Z,23.74
2019-03-19T15:00:21.849Z,24.16
2019-03-19T15:02:51.279Z,24.73
2019-03-19T15:05:20.676Z,24.97
2019-03-19T15:07:50.100Z,23.94
2019-03-19T15:10:21.610Z,24.49
2019-03-19T15:12:51.035Z,25.74
2019-03-19T15:15:21.472Z,25.55
2019-03-19T15:17:50.948Z,25.61
2019-03-19T15:20:24.592Z,25.81
2019-03-19T15:22:54.030Z,26.56
2019-03-19T15:25:23.482Z,26.34
2019-03-19T15:27:53.133Z,26.09
2019-03-19T15:30:23.417Z,25.62
2019-03-19T15:32:52.841Z,27.07
2019-03-19T15:35:22.228Z,27.36
2019-03-19T15:37:51.649Z,26.33
2019-03-19T15:40:21.129Z,26.08
2019-03-19T15:42:50.530Z,26.88
2019-03-19T15:45:28.806Z,26.79
2019-03-19T15:47:58.233Z,26.29
2019-03-19T15:50:27.639Z,28.24
2019-03-19T15:52:57.072Z,26.34
2019-03-19T15:55:26.479Z,26.00
2019-03-19T15:57:55.915Z,26.47
2019-03-19T16:00:25.304Z,25.75
2019-03-19T16:02:54.741Z,25.31
2019-03-19T16:05:24.143Z,25.34
2019-03-19T16:07:53.560Z,25.01
2019-03-19T16:10:22.971Z,25.09
2019-03-19T16:12:52.398Z,25.98
2019-03-19T16:15:22.930Z,25.04
2019-03-19T16:17:52.409Z,25.63
2019-03-19T16:20:22.700Z,24.79
2019-03-19T16:22:52.127Z,24.09
2019-03-19T16:25:21.634Z,23.97
2019-03-19T16:27:51.042Z,24.23
2019-03-19T16:30:21.001Z,24.59
2019-03-19T16:32:50.382Z,24.55
2019-03-19T16:35:19.810Z,24.78
2019-03-19T16:37:49.195Z,25.07
2019-03-19T16:40:22.175Z,24.64
2019-03-19T16:42:51.556Z,25.60
2019-03-19T16:45:20.971Z,25.61
2019-03-19T16:47:50.366Z,26.01
2019-03-19T16:50:23.747Z,26.19
2019-03-19T16:52:53.151Z,26.51
2019-03-19T16:55:22.978Z,27.23
2019-03-19T16:57:52.376Z,27.05
2019-03-19T17:00:23.520Z,27.19
2019-03-19T17:02:52.882Z,27.77
2019-03-19T17:05:22.448Z,28.12
2019-03-19T17:07:51.913Z,28.77
2019-03-19T17:10:26.525Z,28.67
2019-03-19T17:12:56.034Z,29.12
2019-03-19T17:15:25.444Z,29.33
2019-03-19T17:17:54.840Z,30.02
2019-03-19T17:20:24.268Z,30.33
2019-03-19T17:22:53.668Z,30.57
2019-03-19T17:25:26.955Z,30.12
2019-03-19T17:27:56.352Z,30.76
2019-03-19T17:30:33.596Z,31.04
2019-03-19T17:33:03.057Z,31.47
2019-03-19T17:35:32.485Z,32.14
2019-03-19T17:38:01.942Z,31.65
2019-03-19T17:40:40.881Z,32.16
2019-03-19T17:43:02.454Z,32.68
2019-03-19T17:45:31.883Z,33.23
2019-03-19T17:48:01.288Z,33.63
2019-03-19T17:50:35.822Z,33.65
2019-03-19T17:53:05.579Z,33.93
2019-03-19T17:55:35.029Z,33.96
2019-03-19T17:58:04.628Z,33.82
2019-03-19T18:00:35.693Z,34.52
2019-03-19T18:03:07.314Z,34.59
2019-03-19T18:05:36.731Z,35.21
2019-03-19T18:08:06.195Z,35.40
2019-03-19T18:10:35.610Z,35.43
2019-03-19T18:13:06.620Z,35.50
2019-03-19T18:15:36.242Z,35.10
2019-03-19T18:18:05.902Z,35.52
2019-03-19T18:20:35.337Z,35.57
2019-03-19T18:23:04.869Z,35.20
2019-03-19T18:25:34.279Z,35.82
2019-03-19T18:28:03.684Z,36.03
2019-03-19T18:30:33.140Z,38.40
2019-03-19T18:33:02.542Z,37.78
2019-03-19T18:35:31.946Z,38.17
2019-03-19T18:38:01.337Z,38.53
2019-03-19T18:40:30.762Z,39.04
2019-03-19T18:43:00.160Z,39.33
2019-03-19T18:45:29.582Z,39.71
2019-03-19T18:47:58.988Z,40.31
2019-03-19T18:50:28.390Z,40.85
2019-03-19T18:52:57.853Z,41.26
2019-03-19T18:55:27.255Z,41.19
2019-03-19T18:57:56.642Z,39.77
2019-03-19T19:00:26.057Z,40.09
2019-03-19T19:02:55.449Z,40.39
2019-03-19T19:05:25.143Z,41.00
2019-03-19T19:07:54.555Z,40.74
2019-03-19T19:10:24.038Z,40.53
2019-03-19T19:12:53.505Z,40.43
2019-03-19T19:15:26.251Z,40.75
2019-03-19T19:17:55.660Z,40.83
2019-03-19T19:20:25.140Z,40.17
2019-03-19T19:22:54.571Z,40.40
2019-03-19T19:25:28.146Z,39.98
2019-03-19T19:27:57.610Z,40.49
2019-03-19T19:30:31.126Z,40.29
2019-03-19T19:33:02.423Z,40.70
2019-03-19T19:35:31.677Z,39.70
2019-03-19T19:38:03.229Z,41.52
2019-03-19T19:40:32.233Z,41.08
2019-03-19T19:43:01.667Z,40.71
2019-03-19T19:45:31.078Z,40.72
2019-03-19T19:48:00.499Z,40.63
2019-03-19T19:50:29.985Z,40.94
2019-03-19T19:52:59.424Z,41.13
2019-03-19T19:55:28.860Z,41.36
2019-03-19T19:57:58.318Z,41.71
2019-03-19T20:00:28.488Z,41.72
2019-03-19T20:02:57.994Z,41.42
2019-03-19T20:05:27.402Z,41.81
2019-03-19T20:07:56.819Z,41.78
2019-03-19T20:10:27.572Z,42.01
2019-03-19T20:12:56.961Z,42.15
2019-03-19T20:15:26.371Z,42.87
2019-03-19T20:17:55.884Z,43.73
2019-03-19T20:20:30.330Z,43.71
2019-03-19T20:22:59.787Z,43.64
2019-03-19T20:25:29.207Z,44.06
2019-03-19T20:27:58.622Z,44.55
2019-03-19T20:30:28.497Z,44.34
2019-03-19T20:32:57.965Z,45.38
2019-03-19T20:35:27.448Z,44.84
2019-03-19T20:37:56.839Z,45.01
2019-03-19T20:40:26.269Z,44.73
2019-03-19T20:42:55.763Z,45.27
2019-03-19T20:45:29.398Z,45.77
2019-03-19T20:47:58.823Z,45.59
2019-03-19T20:50:39.563Z,46.39
2019-03-19T20:53:08.959Z,47.02
2019-03-19T20:55:38.370Z,46.53
2019-03-19T20:58:07.791Z,47.31
2019-03-19T21:00:37.260Z,47.73
2019-03-19T21:03:06.702Z,47.82
2019-03-19T21:05:36.112Z,48.42
2019-03-19T21:08:05.529Z,47.89
2019-03-19T21:10:35.416Z,48.09
2019-03-19T21:13:04.919Z,48.10
2019-03-19T21:15:34.314Z,48.65
2019-03-19T21:18:03.732Z,48.76
2019-03-19T21:20:33.243Z,48.99
2019-03-19T21:23:02.672Z,48.32
2019-03-19T21:25:32.066Z,48.85
2019-03-19T21:28:01.665Z,48.57
2019-03-19T21:30:31.052Z,49.04
2019-03-19T21:33:00.483Z,48.91
2019-03-19T21:35:29.914Z,48.82
2019-03-19T21:37:59.342Z,48.97
2019-03-19T21:40:28.741Z,49.69
2019-03-19T21:42:58.430Z,49.72
2019-03-19T21:45:27.970Z,49.99
2019-03-19T21:47:57.375Z,50.35
2019-03-19T21:50:26.970Z,49.94
2019-03-19T21:52:56.400Z,49.90
2019-03-19T21:55:25.870Z,51.03
2019-03-19T21:57:55.288Z,51.66
2019-03-19T22:00:29.086Z,52.28
2019-03-19T22:02:58.508Z,51.31
2019-03-19T22:05:27.914Z,52.41
2019-03-19T22:07:57.414Z,52.88
2019-03-19T22:10:26.901Z,52.03
2019-03-19T22:12:56.317Z,52.77
2019-03-19T22:15:26.353Z,52.67
2019-03-19T22:17:55.764Z,52.91
2019-03-19T22:20:25.160Z,51.82
2019-03-19T22:22:54.638Z,51.26
2019-03-19T22:25:24.033Z,51.24
2019-03-19T22:27:53.543Z,51.84
2019-03-19T22:30:23.092Z,53.04
2019-03-19T22:32:52.573Z,52.13
2019-03-19T22:35:21.968Z,52.00
2019-03-19T22:37:51.399Z,50.79
2019-03-19T22:40:20.842Z,50.20
2019-03-19T22:42:50.253Z,49.99
2019-03-19T22:45:20.019Z,50.93
2019-03-19T22:47:49.520Z,50.66
2019-03-19T22:50:19.271Z,51.06
2019-03-19T22:52:48.703Z,51.04
2019-03-19T22:55:28.602Z,51.57
2019-03-19T22:57:49.775Z,52.11
2019-03-19T23:00:37.855Z,53.20
2019-03-19T23:03:08.117Z,54.07
2019-03-19T23:05:37.559Z,54.79
2019-03-19T23:08:07.075Z,55.00
2019-03-19T23:10:36.695Z,54.88
2019-03-19T23:13:06.373Z,56.17
2019-03-19T23:15:35.979Z,56.01
2019-03-19T23:18:05.473Z,55.70
2019-03-19T23:20:48.261Z,56.90
2019-03-19T23:23:17.682Z,56.85
2019-03-19T23:25:47.155Z,57.18
2019-03-19T23:28:16.580Z,56.86
2019-03-19T23:30:45.963Z,57.31
2019-03-19T23:33:15.364Z,57.14
2019-03-19T23:35:44.761Z,56.93
2019-03-19T23:38:14.185Z,56.85
2019-03-19T23:40:43.586Z,56.55
2019-03-19T23:43:13.004Z,57.08
2019-03-19T23:45:42.413Z,56.93
2019-03-19T23:48:11.836Z,57.10
2019-03-19T23:50:41.240Z,56.76
2019-03-19T23:53:10.645Z,55.90
2019-03-19T23:55:40.044Z,55.68
2019-03-19T23:58:10.498Z,55.13
